KBKT/BKT METAR and TAF weather

Enter ICAO airport designator
Station Type Date Time Source
KBKT METAR 2018/01/23 01:15 UTC NOAA

KBKT 230115Z AUTO 19008G14KT 10SM CLR 12/07 A3003 RMK AO1 T01220065


Station Type Date Time Source
KBKT Decoded METAR 2018/01/23 01:15 UTC NOAA

Ft. Pickett / Blackstone, VA, United States (KBKT) 37-05N 077-57W
Jan 22, 2018 - 08:15 PM EST / 2018.01.23 0115 UTC
Wind: from the S (190 degrees) at 9 MPH (8 KT) gusting to 16 MPH (14 KT):0
Visibility: 10 mile(s):0
Sky conditions: clear
Temperature: 54.0 F (12.2 C)
Dew Point: 43.7 F (6.5 C)
Relative Humidity: 68%
Pressure (altimeter): 30.03 in. Hg (1016 hPa)
ob: KBKT 230115Z AUTO 19008G14KT 10SM CLR 12/07 A3003 RMK AO1 T01220065
cycle: 1

Station Type Date Time Source
KBKT TAF UTC NOAA

Error!


Example: see airport list